Time;durP1;ratioP1;P1;durP2;ratioP2;P2;SDS_P1;SDS_P2;PMS_P1;PMS_P2;Temp;Humidity;BMP_temperature;BMP_pressure;BME280_temperature;BME280_humidity;BME280_pressure;Samples;Min_cycle;Max_cycle;Signal;HPM_P1;HPM_P2
2021/11/21 00:01:23;;;;;;;3.03;2.75;;;;;;;4.86;91.63;99371.81;2043076;76;23864;-78
2021/11/21 00:04:26;;;;;;;4.85;3.31;;;;;;;4.84;91.54;99374.31;2045297;79;20327;-78
2021/11/21 00:07:29;;;;;;;3.69;2.84;;;;;;;4.80;91.52;99367.41;2045646;79;20371;-78
2021/11/21 00:10:33;;;;;;;3.78;3.04;;;;;;;4.80;91.67;99369.09;2046482;79;20319;-78
2021/11/21 00:13:36;;;;;;;4.72;2.74;;;;;;;4.80;91.59;99366.53;2046441;79;20343;-78
2021/11/21 00:16:39;;;;;;;3.70;2.92;;;;;;;4.77;91.46;99376.78;2040359;77;22456;-78
2021/11/21 00:19:42;;;;;;;4.89;3.08;;;;;;;4.80;91.63;99369.97;2046463;79;20376;-78
2021/11/21 00:22:46;;;;;;;4.93;3.26;;;;;;;4.85;91.68;99362.38;2044957;79;20359;-76
2021/11/21 00:25:49;;;;;;;4.18;3.17;;;;;;;4.85;91.80;99358.09;2044216;79;20772;-78
2021/11/21 00:28:52;;;;;;;4.45;3.34;;;;;;;4.87;91.79;99350.38;2044102;79;20333;-78
2021/11/21 00:31:54;;;;;;;5.32;3.33;;;;;;;4.88;91.92;99352.13;2042545;76;23047;-78
2021/11/21 00:34:57;;;;;;;5.03;3.80;;;;;;;4.88;91.84;99352.13;2091878;69;20456;-78
2021/11/21 00:38:00;;;;;;;4.56;3.47;;;;;;;4.89;91.77;99341.00;2034297;79;20496;-78
2021/11/21 00:41:03;;;;;;;4.72;3.14;;;;;;;4.92;91.68;99335.03;2034869;79;21119;-77
2021/11/21 00:44:06;;;;;;;5.88;3.39;;;;;;;4.94;91.56;99339.34;2034835;79;20397;-77
2021/11/21 00:47:10;;;;;;;3.92;3.08;;;;;;;4.93;91.56;99337.63;2031627;76;23081;-78
2021/11/21 00:50:15;;;;;;;5.59;3.50;;;;;;;4.92;91.60;99329.88;2017322;79;20776;-78
2021/11/21 00:53:18;;;;;;;5.14;3.69;;;;;;;4.89;91.46;99328.13;2030046;79;20352;-78
2021/11/21 00:56:21;;;;;;;6.41;3.86;;;;;;;4.87;91.59;99324.66;2029158;79;20294;-78
2021/11/21 00:59:24;;;;;;;6.32;3.90;;;;;;;4.84;91.55;99327.16;2030942;79;21089;-78
2021/11/21 01:02:26;;;;;;;5.38;4.32;;;;;;;4.81;91.64;99324.53;2028467;76;26456;-77
2021/11/21 01:05:29;;;;;;;6.10;3.78;;;;;;;4.83;91.91;99317.72;2030095;79;20557;-78
2021/11/21 01:08:32;;;;;;;5.75;3.78;;;;;;;4.89;91.86;99322.13;2030422;79;20315;-78
2021/11/21 01:11:35;;;;;;;6.65;4.30;;;;;;;4.94;91.80;99307.63;2029951;79;20311;-77
2021/11/21 01:14:38;;;;;;;5.89;4.14;;;;;;;4.97;91.75;99303.38;2030570;79;20354;-77
2021/11/21 01:17:41;;;;;;;5.75;4.05;;;;;;;5.00;91.67;99300.00;2028584;76;22915;-78
2021/11/21 01:20:45;;;;;;;6.96;4.51;;;;;;;5.02;91.61;99298.31;2031245;79;20368;-78
2021/11/21 01:23:48;;;;;;;11.73;4.45;;;;;;;4.99;91.57;99290.53;2026631;79;20494;-78
2021/11/21 01:26:51;;;;;;;8.71;5.57;;;;;;;4.98;91.72;99289.66;2029682;79;20340;-78
2021/11/21 01:29:53;;;;;;;7.38;4.51;;;;;;;4.95;91.65;99291.34;2030454;79;20311;-78
2021/11/21 01:32:58;;;;;;;9.05;4.71;;;;;;;4.91;91.80;99290.44;2030596;77;22173;-78
2021/11/21 01:36:00;;;;;;;7.15;4.43;;;;;;;4.94;91.91;99281.88;2035164;79;20323;-78
2021/11/21 01:39:03;;;;;;;7.25;4.70;;;;;;;4.92;91.96;99281.00;2034744;79;20921;-77
2021/11/21 01:42:06;;;;;;;8.88;5.14;;;;;;;4.93;91.93;99272.44;2035975;79;20460;-78
2021/11/21 01:45:10;;;;;;;8.38;5.00;;;;;;;4.93;92.08;99272.44;2033937;79;20393;-78
2021/11/21 01:48:13;;;;;;;8.61;5.40;;;;;;;4.95;92.15;99265.59;2029745;77;25020;-78
2021/11/21 01:51:15;;;;;;;11.55;5.82;;;;;;;4.96;92.20;99259.63;2030170;79;20387;-77
2021/11/21 01:54:18;;;;;;;8.02;4.88;;;;;;;4.96;92.24;99257.91;2030649;79;20388;-78
2021/11/21 01:57:21;;;;;;;12.38;5.56;;;;;;;4.98;92.31;99257.94;2029459;80;20379;-77
2021/11/21 02:00:27;;;;;;;12.15;5.74;;;;;;;4.98;92.26;99261.38;2029130;77;24479;-78
2021/11/21 02:03:30;;;;;;;9.20;4.59;;;;;;;4.95;92.08;99253.59;2030389;79;20318;-78
2021/11/21 02:06:35;;;;;;;9.60;5.94;;;;;;;4.96;92.00;99249.34;2028160;80;20338;-78
2021/11/21 02:09:38;;;;;;;11.75;5.32;;;;;;;4.93;91.81;99249.28;2028590;79;21146;-78
2021/11/21 02:12:41;;;;;;;11.75;4.96;;;;;;;4.89;91.85;99238.09;2028679;80;20347;-77
2021/11/21 02:15:44;;;;;;;10.38;5.19;;;;;;;4.88;91.86;99241.50;2027513;80;20450;-77
2021/11/21 02:18:48;;;;;;;12.94;6.15;;;;;;;4.89;92.02;99225.22;2028015;77;25854;-77
2021/11/21 02:21:51;;;;;;;10.46;5.60;;;;;;;4.89;92.02;99219.22;2029071;79;20307;-78
2021/11/21 02:24:53;;;;;;;12.77;5.74;;;;;;;4.89;92.02;99211.50;2028843;80;20335;-77
2021/11/21 02:27:56;;;;;;;9.54;5.31;;;;;;;4.90;92.11;99202.94;2032822;79;20365;-77
2021/11/21 02:30:59;;;;;;;9.55;5.35;;;;;;;4.92;92.03;99201.25;2023686;77;24085;-78
2021/11/21 02:34:02;;;;;;;9.86;5.30;;;;;;;4.90;92.03;99196.09;2029564;79;20376;-78
2021/11/21 02:37:09;;;;;;;11.14;5.76;;;;;;;4.94;92.10;99191.84;2025952;79;20311;-78
2021/11/21 02:40:14;;;;;;;11.13;5.41;;;;;;;4.94;92.12;99187.56;2029852;79;20299;-77
2021/11/21 02:43:18;;;;;;;11.15;5.18;;;;;;;4.93;91.95;99188.41;2029703;79;20427;-78
2021/11/21 02:46:21;;;;;;;12.91;5.93;;;;;;;4.88;91.95;99191.75;2027047;76;20743;-77
2021/11/21 02:49:23;;;;;;;12.00;6.35;;;;;;;4.87;92.07;99190.91;2024395;79;20318;-78
2021/11/21 02:52:26;;;;;;;10.25;5.25;;;;;;;4.89;92.29;99185.78;2030500;79;20318;-77
2021/11/21 02:55:32;;;;;;;8.41;4.85;;;;;;;4.88;92.43;99182.34;2030649;79;20368;-77
2021/11/21 02:58:35;;;;;;;8.20;4.53;;;;;;;4.88;92.32;99179.75;2030910;79;20361;-77
2021/11/21 03:01:38;;;;;;;9.94;4.84;;;;;;;4.89;92.18;99181.50;2029429;76;27119;-77
2021/11/21 03:04:43;;;;;;;7.55;4.22;;;;;;;4.87;92.11;99179.75;2031343;79;20428;-77
2021/11/21 03:07:47;;;;;;;5.63;3.54;;;;;;;4.85;92.25;99182.31;2031927;79;20311;-77
2021/11/21 03:10:52;;;;;;;6.35;4.15;;;;;;;4.85;92.37;99188.31;2031864;79;20348;-77
2021/11/21 03:13:57;;;;;;;6.97;4.15;;;;;;;4.87;92.41;99183.19;2031978;79;20376;-77
2021/11/21 03:17:00;;;;;;;7.80;3.95;;;;;;;4.89;92.46;99183.19;2029993;77;20896;-77
2021/11/21 03:20:04;;;;;;;5.46;3.86;;;;;;;4.86;92.30;99173.75;2027199;79;21191;-77
2021/11/21 03:23:07;;;;;;;5.84;3.79;;;;;;;4.87;92.29;99169.47;2032034;79;21163;-77
2021/11/21 03:26:10;;;;;;;5.26;3.47;;;;;;;4.85;92.30;99165.16;2032027;79;20346;-77
2021/11/21 03:29:14;;;;;;;4.54;2.75;;;;;;;4.83;92.20;99156.53;2031533;79;20315;-77
2021/11/21 03:32:17;;;;;;;3.90;2.78;;;;;;;4.83;92.14;99155.66;2029102;77;20599;-77
2021/11/21 03:35:21;;;;;;;4.38;3.09;;;;;;;4.79;91.97;99147.03;2031505;79;20322;-77
2021/11/21 03:38:23;;;;;;;2.25;1.84;;;;;;;4.78;91.95;99150.47;2030730;79;20311;-77
2021/11/21 03:41:27;;;;;;;3.08;2.15;;;;;;;4.80;92.00;99142.75;2030992;79;20345;-77
2021/11/21 03:44:30;;;;;;;2.60;2.26;;;;;;;4.81;91.81;99147.06;2031145;79;20335;-77
2021/11/21 03:47:32;;;;;;;3.09;2.33;;;;;;;4.81;91.85;99144.50;2033903;76;21804;-77
2021/11/21 03:50:35;;;;;;;3.06;2.09;;;;;;;4.82;91.75;99151.34;2036559;79;20330;-77
2021/11/21 03:53:39;;;;;;;4.51;2.31;;;;;;;4.84;91.63;99145.38;2036065;79;20343;-77
2021/11/21 03:56:41;;;;;;;2.49;1.96;;;;;;;4.83;91.72;99140.22;2037664;79;20313;-77
2021/11/21 03:59:44;;;;;;;2.75;2.35;;;;;;;4.81;91.69;99147.06;2035411;79;20357;-77
2021/11/21 04:02:48;;;;;;;3.20;2.38;;;;;;;4.78;91.82;99144.44;2029577;77;23945;-77
2021/11/21 04:05:51;;;;;;;3.71;2.36;;;;;;;4.79;91.99;99139.31;2029861;79;20407;-77
2021/11/21 04:08:54;;;;;;;4.47;2.16;;;;;;;4.81;92.07;99135.06;2029901;79;20470;-77
2021/11/21 04:11:56;;;;;;;2.36;1.96;;;;;;;4.80;92.08;99132.47;2029119;79;20327;-77
2021/11/21 04:15:00;;;;;;;3.51;2.47;;;;;;;4.75;92.17;99124.69;2029636;79;20376;-77
2021/11/21 04:18:04;;;;;;;4.69;2.76;;;;;;;4.73;92.22;99121.25;2029526;77;21194;-76
2021/11/21 04:21:06;;;;;;;4.21;2.61;;;;;;;4.74;92.56;99128.13;2032717;79;20356;-77
2021/11/21 04:24:12;;;;;;;4.18;2.71;;;;;;;4.75;92.59;99123.84;2029764;79;20375;-77
2021/11/21 04:27:15;;;;;;;3.79;2.47;;;;;;;4.74;92.69;99116.97;2029251;79;20391;-77
2021/11/21 04:30:18;;;;;;;2.80;2.40;;;;;;;4.77;92.83;99114.44;2028584;77;23478;-77
2021/11/21 04:33:22;;;;;;;4.35;2.91;;;;;;;4.78;92.90;99104.16;2035518;79;21530;-77
2021/11/21 04:36:25;;;;;;;4.24;2.69;;;;;;;4.82;92.93;99103.34;2035229;79;20309;-77
2021/11/21 04:39:28;;;;;;;3.63;2.84;;;;;;;4.84;92.85;99104.22;2034734;79;20325;-77
2021/11/21 04:42:30;;;;;;;3.06;2.65;;;;;;;4.85;92.88;99095.72;2034790;79;20398;-76
2021/11/21 04:45:33;;;;;;;3.19;2.46;;;;;;;4.88;92.72;99102.59;2032207;77;21861;-77
2021/11/21 04:48:36;;;;;;;3.64;2.72;;;;;;;4.85;92.65;99093.13;2028691;79;20342;-77
2021/11/21 04:51:38;;;;;;;3.33;2.60;;;;;;;4.86;92.65;99101.72;2030136;79;20811;-77
2021/11/21 04:54:41;;;;;;;3.45;2.78;;;;;;;4.87;92.71;99094.84;2029089;79;20369;-77
2021/11/21 04:57:43;;;;;;;3.65;2.88;;;;;;;4.89;92.63;99086.31;2029285;79;20352;-77
2021/11/21 05:00:46;;;;;;;4.40;3.10;;;;;;;4.90;92.64;99082.03;2027869;77;25487;-77
2021/11/21 05:03:49;;;;;;;4.97;2.97;;;;;;;4.89;92.69;99086.31;2028817;79;20440;-77
2021/11/21 05:06:52;;;;;;;5.54;3.16;;;;;;;4.87;92.95;99085.44;2031007;79;20360;-77
2021/11/21 05:09:54;;;;;;;3.46;2.60;;;;;;;4.87;93.05;99084.56;2029334;79;20342;-77
2021/11/21 05:12:57;;;;;;;4.47;3.22;;;;;;;4.85;93.01;99093.13;2025399;79;20315;-77
2021/11/21 05:15:59;;;;;;;4.51;2.94;;;;;;;4.85;93.12;99088.00;2027048;77;22952;-77
2021/11/21 05:19:04;;;;;;;5.25;3.14;;;;;;;4.84;92.95;99086.22;2028985;79;20376;-76
2021/11/21 05:22:07;;;;;;;7.07;3.51;;;;;;;4.80;93.08;99086.19;2029187;79;20410;-76
2021/11/21 05:25:09;;;;;;;5.66;2.88;;;;;;;4.79;93.26;99092.16;2028778;79;20399;-77
2021/11/21 05:28:12;;;;;;;5.61;3.15;;;;;;;4.80;93.46;99086.19;2028761;79;20807;-76
2021/11/21 05:31:15;;;;;;;6.22;3.24;;;;;;;4.76;93.42;99081.84;2029129;77;20393;-76
2021/11/21 05:34:17;;;;;;;4.50;3.47;;;;;;;4.76;93.64;99081.84;2033677;79;20310;-77
2021/11/21 05:37:20;;;;;;;3.76;2.86;;;;;;;4.73;93.69;99080.09;2034290;79;20767;-76
2021/11/21 05:40:23;;;;;;;5.71;3.39;;;;;;;4.75;93.89;99086.13;2033332;79;20334;-77
2021/11/21 05:43:25;;;;;;;3.78;3.05;;;;;;;4.72;93.87;99080.06;2034512;79;20350;-76
2021/11/21 05:46:28;;;;;;;4.60;3.15;;;;;;;4.68;93.84;99076.59;2029143;77;21833;-76
2021/11/21 05:49:31;;;;;;;4.59;2.99;;;;;;;4.63;94.21;99083.38;2029018;79;21146;-76
2021/11/21 05:52:33;;;;;;;5.99;2.96;;;;;;;4.68;94.49;99075.75;2029602;79;20314;-76
2021/11/21 05:55:36;;;;;;;3.50;2.63;;;;;;;4.68;94.32;99065.47;2028713;80;20326;-76
2021/11/21 05:58:38;;;;;;;4.21;2.74;;;;;;;4.67;94.25;99072.31;2028578;79;20383;-77
2021/11/21 06:01:41;;;;;;;3.47;2.53;;;;;;;4.66;94.44;99069.69;2026590;77;21185;-77
2021/11/21 06:04:44;;;;;;;2.92;2.19;;;;;;;4.64;94.34;99064.53;2028975;79;20334;-76
2021/11/21 06:07:47;;;;;;;2.66;2.46;;;;;;;4.65;94.41;99073.09;2028341;79;20299;-76
2021/11/21 06:10:50;;;;;;;2.45;2.11;;;;;;;4.64;94.11;99073.94;2028360;79;20753;-76
2021/11/21 06:13:53;;;;;;;3.60;2.69;;;;;;;4.63;94.25;99075.66;2025237;79;20339;-76
2021/11/21 06:16:55;;;;;;;2.97;2.55;;;;;;;4.65;94.22;99067.97;2022862;77;22025;-76
2021/11/21 06:19:58;;;;;;;4.82;2.51;;;;;;;4.68;94.35;99065.47;2028631;80;20314;-76
2021/11/21 06:23:01;;;;;;;2.81;2.35;;;;;;;4.70;94.37;99056.91;2028294;80;20336;-76
2021/11/21 06:26:05;;;;;;;2.33;2.09;;;;;;;4.70;94.37;99063.78;2025619;79;20402;-76
2021/11/21 06:29:08;;;;;;;3.19;2.41;;;;;;;4.71;94.37;99057.78;2029860;79;20370;-76
2021/11/21 06:32:11;;;;;;;2.21;2.01;;;;;;;4.70;94.32;99056.91;2028577;79;20344;-76
2021/11/21 06:35:14;;;;;;;2.84;2.29;;;;;;;4.69;94.23;99059.47;2029343;79;20879;-76
2021/11/21 06:38:17;;;;;;;3.14;2.33;;;;;;;4.65;94.05;99065.38;2029199;79;20391;-76
2021/11/21 06:41:21;;;;;;;4.46;2.50;;;;;;;4.63;94.23;99060.22;2029733;79;20895;-77
2021/11/21 06:44:23;;;;;;;3.50;2.06;;;;;;;4.66;94.28;99054.25;2030131;79;20342;-77
2021/11/21 06:47:26;;;;;;;2.58;2.09;;;;;;;4.68;94.31;99055.16;2024812;77;32580;-76
2021/11/21 06:50:29;;;;;;;2.53;2.20;;;;;;;4.69;94.38;99051.75;2029411;79;20403;-76
2021/11/21 06:53:32;;;;;;;1.80;1.63;;;;;;;4.70;94.30;99051.78;2028912;79;20448;-76
2021/11/21 06:56:35;;;;;;;2.28;2.08;;;;;;;4.66;93.93;99046.53;2029325;79;20372;-76
2021/11/21 06:59:38;;;;;;;2.25;2.01;;;;;;;4.61;93.96;99051.63;2029028;79;20916;-76
2021/11/21 07:02:40;;;;;;;2.16;1.96;;;;;;;4.60;94.20;99049.03;2027566;77;20804;-76
2021/11/21 07:05:43;;;;;;;2.04;1.77;;;;;;;4.61;94.28;99040.47;2029077;79;20791;-77
2021/11/21 07:08:46;;;;;;;2.21;2.01;;;;;;;4.61;94.20;99048.19;2026169;79;20322;-76
2021/11/21 07:11:49;;;;;;;1.80;1.70;;;;;;;4.62;94.27;99052.50;2029030;79;20295;-76
2021/11/21 07:14:52;;;;;;;2.60;2.25;;;;;;;4.63;94.33;99060.22;2030268;79;20367;-77
2021/11/21 07:17:54;;;;;;;2.25;2.06;;;;;;;4.57;94.21;99057.59;2034056;76;20652;-76
2021/11/21 07:20:58;;;;;;;2.30;2.11;;;;;;;4.57;94.52;99060.16;2034592;79;20432;-75
2021/11/21 07:24:00;;;;;;;1.86;1.76;;;;;;;4.58;94.50;99054.16;2035109;79;20686;-76
2021/11/21 07:27:03;;;;;;;2.36;1.99;;;;;;;4.59;94.61;99055.03;2034280;79;20318;-75
2021/11/21 07:30:06;;;;;;;2.29;2.06;;;;;;;4.62;94.66;99055.94;2033156;79;20345;-76
2021/11/21 07:33:10;;;;;;;2.25;1.90;;;;;;;4.65;94.56;99053.41;2034773;77;23984;-77
2021/11/21 07:36:13;;;;;;;1.91;1.79;;;;;;;4.66;94.48;99054.25;2034389;79;20322;-76
2021/11/21 07:39:15;;;;;;;1.90;1.80;;;;;;;4.70;94.59;99056.06;2034240;79;21109;-76
2021/11/21 07:42:19;;;;;;;1.88;1.54;;;;;;;4.74;94.63;99050.09;2034441;79;20777;-77
2021/11/21 07:45:22;;;;;;;1.98;1.88;;;;;;;4.77;94.55;99039.84;2032816;77;23314;-77
2021/11/21 07:48:25;;;;;;;1.61;1.51;;;;;;;4.81;94.62;99046.75;2034336;79;20322;-77
2021/11/21 07:51:27;;;;;;;1.76;1.66;;;;;;;4.82;94.49;99056.19;2035524;79;20310;-77
2021/11/21 07:54:32;;;;;;;1.83;1.61;;;;;;;4.85;94.46;99049.41;2034155;79;20350;-75
2021/11/21 07:57:35;;;;;;;1.46;1.36;;;;;;;4.87;94.26;99040.84;2034170;79;20318;-76
2021/11/21 08:00:37;;;;;;;1.67;1.44;;;;;;;4.88;94.25;99038.28;2035086;76;20947;-76
2021/11/21 08:03:41;;;;;;;1.77;1.55;;;;;;;4.87;94.18;99031.41;2030691;79;20721;-76
2021/11/21 08:06:44;;;;;;;1.67;1.52;;;;;;;4.90;94.24;99033.16;2033895;79;20313;-75
2021/11/21 08:09:46;;;;;;;1.69;1.52;;;;;;;4.96;94.28;99043.50;2029170;79;20400;-76
2021/11/21 08:12:49;;;;;;;2.47;1.60;;;;;;;4.96;94.18;99043.50;2033507;79;20336;-76
2021/11/21 08:15:53;;;;;;;1.95;1.27;;;;;;;4.98;94.21;99040.09;2030037;76;20348;-75
2021/11/21 08:18:56;;;;;;;3.03;1.39;;;;;;;4.97;93.95;99038.38;2031196;79;20827;-76
2021/11/21 08:21:59;;;;;;;1.49;1.39;;;;;;;4.99;94.10;99040.97;2031306;79;20322;-76
2021/11/21 08:25:04;;;;;;;1.50;1.40;;;;;;;5.03;94.07;99045.34;2031361;79;20642;-76
2021/11/21 08:28:07;;;;;;;1.60;1.50;;;;;;;5.02;93.83;99046.16;2031165;79;20318;-77
2021/11/21 08:31:10;;;;;;;1.70;1.60;;;;;;;5.05;94.08;99047.06;2029376;77;20305;-77
2021/11/21 08:34:12;;;;;;;1.54;1.44;;;;;;;5.07;93.82;99042.81;2034505;79;20813;-76
2021/11/21 08:37:15;;;;;;;2.66;1.50;;;;;;;5.06;93.79;99035.06;2034370;79;20371;-75
2021/11/21 08:40:18;;;;;;;2.06;1.50;;;;;;;5.11;93.97;99042.00;2032404;79;20353;-77
2021/11/21 08:43:21;;;;;;;1.26;1.16;;;;;;;5.14;93.66;99041.16;2033095;79;20335;-77
2021/11/21 08:46:23;;;;;;;1.50;1.40;;;;;;;5.16;93.72;99036.88;2030852;76;22953;-77
2021/11/21 08:49:26;;;;;;;1.36;1.19;;;;;;;5.19;93.62;99028.34;2025720;79;20352;-76
2021/11/21 08:52:29;;;;;;;1.51;1.20;;;;;;;5.20;93.44;99030.06;2030344;79;20307;-77
2021/11/21 08:55:32;;;;;;;1.89;1.19;;;;;;;5.22;93.56;99029.25;2030371;79;20319;-77
2021/11/21 08:58:34;;;;;;;1.41;1.17;;;;;;;5.29;93.65;99031.03;2028899;79;20376;-76
2021/11/21 09:01:37;;;;;;;1.94;1.25;;;;;;;5.32;93.43;99025.91;2029076;79;20336;-76
2021/11/21 09:04:40;;;;;;;1.24;1.01;;;;;;;5.35;93.21;99028.53;2029853;79;20319;-77
2021/11/21 09:07:44;;;;;;;1.50;1.05;;;;;;;5.32;93.10;99025.91;2030026;79;20319;-77
2021/11/21 09:10:47;;;;;;;1.35;1.17;;;;;;;5.37;93.04;99026.81;2030005;79;20700;-77
2021/11/21 09:13:50;;;;;;;1.10;0.96;;;;;;;5.40;93.05;99021.72;2029949;79;20323;-78
2021/11/21 09:16:54;;;;;;;1.24;1.08;;;;;;;5.42;92.92;99027.75;2029331;79;20441;-78
2021/11/21 09:19:57;;;;;;;2.69;1.02;;;;;;;5.44;92.70;99018.34;2029834;79;20303;-77
2021/11/21 09:23:01;;;;;;;1.60;0.90;;;;;;;5.45;92.79;99017.47;2028168;79;20368;-76
2021/11/21 09:26:05;;;;;;;0.90;0.90;;;;;;;5.51;92.89;99020.97;2091208;69;21196;-77
2021/11/21 09:29:09;;;;;;;1.99;1.10;;;;;;;5.48;92.64;99024.38;2027764;79;20419;-77
2021/11/21 09:32:12;;;;;;;2.10;1.17;;;;;;;5.53;92.96;99026.97;2027235;78;21824;-77
2021/11/21 09:35:15;;;;;;;1.05;0.84;;;;;;;5.59;92.94;99017.63;2028178;79;20314;-77
2021/11/21 09:38:19;;;;;;;1.60;1.09;;;;;;;5.62;92.70;99021.94;2027373;79;20364;-77
2021/11/21 09:41:22;;;;;;;1.05;0.86;;;;;;;5.63;92.80;99027.09;2028591;79;20386;-77
2021/11/21 09:44:26;;;;;;;1.25;1.08;;;;;;;5.63;92.65;99028.81;2028115;79;20311;-77
2021/11/21 09:47:28;;;;;;;1.00;0.90;;;;;;;5.63;92.55;99034.81;2027184;77;20821;-77
2021/11/21 09:50:36;;;;;;;3.58;0.94;;;;;;;5.63;92.28;99042.56;2028992;79;20323;-77
2021/11/21 09:53:39;;;;;;;0.84;0.84;;;;;;;5.61;92.31;99036.53;2028483;79;20369;-77
2021/11/21 09:56:43;;;;;;;0.90;0.90;;;;;;;5.61;92.47;99033.09;2028167;79;20395;-77
2021/11/21 10:00:06;;;;;;;1.69;1.10;;;;;;;5.63;92.68;99029.66;2028201;80;20348;-77
2021/11/21 10:03:14;;;;;;;1.31;0.93;;;;;;;5.66;92.64;99027.13;2023376;80;20372;-77
2021/11/21 10:06:30;;;;;;;1.66;1.13;;;;;;;5.66;92.51;99027.13;2022945;80;20851;-77
2021/11/21 10:09:41;;;;;;;1.45;1.04;;;;;;;5.70;92.51;99026.28;2023473;80;20881;-77
2021/11/21 10:12:44;;;;;;;1.64;1.50;;;;;;;5.69;92.31;99024.56;2023449;80;20397;-77
2021/11/21 10:15:47;;;;;;;1.25;0.90;;;;;;;5.72;92.24;99024.59;2022587;77;22909;-77
2021/11/21 10:19:17;;;;;;;1.50;1.29;;;;;;;5.72;92.00;99024.59;2027837;79;20395;-77
2021/11/21 10:22:19;;;;;;;1.34;1.10;;;;;;;5.69;91.64;99023.69;2027223;80;20436;-75
2021/11/21 10:25:31;;;;;;;1.14;1.04;;;;;;;5.63;91.63;99021.94;2027110;79;20322;-76
2021/11/21 10:28:34;;;;;;;1.48;0.90;;;;;;;5.59;91.64;99020.19;2026875;80;20460;-76
2021/11/21 10:31:37;;;;;;;1.01;0.90;;;;;;;5.52;91.55;99018.41;2025321;77;22603;-75
2021/11/21 10:34:51;;;;;;;3.47;0.89;;;;;;;5.58;91.82;99012.47;2027827;79;20340;-76
2021/11/21 10:37:57;;;;;;;2.58;0.74;;;;;;;5.62;91.82;99007.34;2026982;79;20315;-76
2021/11/21 10:41:04;;;;;;;0.82;0.68;;;;;;;5.60;91.73;99003.03;2027737;79;20359;-76
2021/11/21 10:44:10;;;;;;;0.76;0.74;;;;;;;5.65;91.96;98998.78;2028204;80;20343;-76
2021/11/21 10:47:12;;;;;;;1.04;0.80;;;;;;;5.67;91.86;98997.94;2022275;78;20314;-75
2021/11/21 10:50:49;;;;;;;1.13;0.86;;;;;;;5.71;91.87;98984.22;2027134;79;20295;-75
2021/11/21 10:53:54;;;;;;;1.19;1.10;;;;;;;5.73;91.86;98985.09;2024345;80;20870;-75
2021/11/21 10:57:00;;;;;;;1.36;1.08;;;;;;;5.75;91.99;98974.84;2026093;79;20845;-75
2021/11/21 11:00:14;;;;;;;0.70;0.70;;;;;;;5.78;91.95;98972.28;2024239;80;20340;-75
2021/11/21 11:03:20;;;;;;;1.02;0.99;;;;;;;5.80;91.82;98969.72;2026805;76;20483;-75
2021/11/21 11:06:28;;;;;;;1.65;1.00;;;;;;;5.80;91.74;98962.84;2025048;79;20319;-75
2021/11/21 11:09:32;;;;;;;0.88;0.88;;;;;;;5.83;91.80;98962.88;2026011;79;20347;-75
2021/11/21 11:12:35;;;;;;;0.89;0.86;;;;;;;5.88;91.89;98961.19;2026857;79;20688;-75
2021/11/21 11:15:40;;;;;;;0.96;0.86;;;;;;;5.94;91.91;98955.25;2025829;77;21946;-75
2021/11/21 11:18:43;;;;;;;1.74;1.13;;;;;;;5.94;91.73;98950.97;2027474;79;20314;-75
2021/11/21 11:21:49;;;;;;;1.17;1.08;;;;;;;5.96;91.59;98953.56;2028057;79;20366;-75
2021/11/21 11:24:55;;;;;;;0.99;0.89;;;;;;;5.96;91.18;98949.25;2027514;79;20352;-76
2021/11/21 11:28:09;;;;;;;1.17;1.05;;;;;;;6.00;91.15;98935.53;2027456;79;20870;-75
2021/11/21 11:31:24;;;;;;;1.23;1.13;;;;;;;6.03;91.17;98939.84;2024558;77;21211;-75
2021/11/21 11:34:36;;;;;;;0.69;0.69;;;;;;;6.11;91.36;98934.75;2026882;79;20319;-75
2021/11/21 11:37:42;;;;;;;1.13;0.90;;;;;;;6.12;91.02;98937.34;2029208;79;20698;-77
2021/11/21 11:40:50;;;;;;;1.46;1.02;;;;;;;6.11;90.67;98935.63;2028396;79;20321;-77
2021/11/21 11:43:54;;;;;;;1.00;0.90;;;;;;;6.19;90.66;98933.06;2028076;79;20306;-77
2021/11/21 11:46:57;;;;;;;1.17;1.08;;;;;;;6.24;90.55;98926.22;2026116;79;22590;-77
2021/11/21 11:50:00;;;;;;;1.25;0.85;;;;;;;6.26;90.47;98925.38;2027435;79;20327;-77
2021/11/21 11:53:08;;;;;;;0.68;0.68;;;;;;;6.29;90.50;98925.41;2028335;79;20638;-78
2021/11/21 11:56:24;;;;;;;0.70;0.70;;;;;;;6.33;90.59;98927.13;2029682;79;20335;-79
2021/11/21 11:59:38;;;;;;;0.54;0.54;;;;;;;6.39;90.63;98922.84;2031666;79;20430;-78
2021/11/21 12:02:45;;;;;;;1.49;0.64;;;;;;;6.41;90.39;98921.16;2028569;77;21472;-78
2021/11/21 12:06:03;;;;;;;0.57;0.50;;;;;;;6.42;89.92;98921.16;2029832;79;20362;-78
2021/11/21 12:09:28;;;;;;;0.65;0.60;;;;;;;6.42;89.89;98897.06;2030860;79;20303;-78
2021/11/21 12:13:09;;;;;;;1.64;0.60;;;;;;;6.45;89.86;98891.94;2029465;79;20836;-78
2021/11/21 12:16:16;;;;;;;4.32;0.71;;;;;;;6.47;89.49;98896.25;2027134;79;20345;-78
2021/11/21 12:19:38;;;;;;;1.38;0.60;;;;;;;6.49;88.97;98915.19;2029017;79;20323;-78
2021/11/21 12:22:40;;;;;;;0.41;0.40;;;;;;;6.41;87.98;98906.53;2029324;79;20306;-78
2021/11/21 12:25:44;;;;;;;1.04;0.43;;;;;;;6.39;87.91;98913.41;2027660;79;20300;-79
2021/11/21 12:28:56;;;;;;;0.60;0.41;;;;;;;6.34;87.64;98904.78;2024619;80;21038;-78
2021/11/21 12:32:18;;;;;;;0.55;0.40;;;;;;;6.28;87.86;98904.75;2022811;80;20392;-78
2021/11/21 12:35:29;;;;;;;0.49;0.40;;;;;;;6.24;87.63;98897.84;2023305;80;20378;-78
2021/11/21 12:38:35;;;;;;;0.86;0.40;;;;;;;6.21;87.74;98897.84;2024006;80;20810;-78
2021/11/21 12:42:23;;;;;;;0.55;0.40;;;;;;;6.20;88.08;98888.41;2024054;80;20312;-78
2021/11/21 12:45:37;;;;;;;0.50;0.34;;;;;;;6.25;88.44;98889.28;2022843;80;20429;-78
2021/11/21 12:48:40;;;;;;;0.71;0.50;;;;;;;6.24;88.24;98892.69;2023112;80;20198;-78
2021/11/21 12:51:42;;;;;;;0.40;0.40;;;;;;;6.18;88.31;98896.13;2024782;80;20329;-78
2021/11/21 12:54:50;;;;;;;0.59;0.46;;;;;;;6.17;88.45;98889.25;2024251;80;20372;-78
2021/11/21 12:57:55;;;;;;;0.46;0.46;;;;;;;6.11;88.21;98890.94;2024398;80;20932;-78
2021/11/21 13:01:00;;;;;;;0.50;0.50;;;;;;;6.09;88.42;98890.91;2023347;80;20324;-78
2021/11/21 13:04:03;;;;;;;0.50;0.50;;;;;;;6.06;88.72;98889.19;2025336;80;20324;-78
2021/11/21 13:07:43;;;;;;;0.40;0.40;;;;;;;6.11;89.16;98889.22;2024957;80;20319;-78
2021/11/21 13:10:50;;;;;;;0.59;0.50;;;;;;;6.16;89.71;98886.66;2024720;80;20311;-78
2021/11/21 13:13:54;;;;;;;1.73;0.51;;;;;;;6.19;90.00;98890.13;2023796;80;20653;-78
2021/11/21 13:16:57;;;;;;;0.50;0.50;;;;;;;6.21;90.26;98888.41;2022250;80;20788;-79
2021/11/21 13:20:05;;;;;;;0.73;0.50;;;;;;;6.19;90.26;98889.25;2023760;80;21237;-78
2021/11/21 13:23:13;;;;;;;0.66;0.52;;;;;;;6.23;90.56;98883.25;2024701;80;20324;-78
2021/11/21 13:26:17;;;;;;;1.01;0.70;;;;;;;6.23;90.61;98876.38;2027288;79;20217;-78
2021/11/21 13:29:20;;;;;;;0.60;0.60;;;;;;;6.26;90.78;98881.53;2028896;79;20207;-78
2021/11/21 13:32:22;;;;;;;0.40;0.40;;;;;;;6.26;90.76;98881.53;2028564;77;21038;-78
2021/11/21 13:35:26;;;;;;;0.64;0.46;;;;;;;6.29;90.76;98875.56;2030521;79;20703;-77
2021/11/21 13:38:30;;;;;;;0.95;0.40;;;;;;;6.32;90.63;98875.56;2029154;79;21065;-80
2021/11/21 13:41:34;;;;;;;0.40;0.40;;;;;;;6.33;90.52;98885.03;2030471;79;20379;-78
2021/11/21 13:44:40;;;;;;;2.05;0.41;;;;;;;6.31;89.99;98887.59;2029394;79;21109;-78
2021/11/21 13:47:42;;;;;;;0.51;0.50;;;;;;;6.31;90.01;98881.59;2027583;77;22450;-78
2021/11/21 13:50:46;;;;;;;0.77;0.50;;;;;;;6.30;90.09;98878.16;2029421;79;20412;-78
2021/11/21 13:53:50;;;;;;;0.86;0.34;;;;;;;6.24;89.89;98885.84;2029590;79;20311;-78
2021/11/21 13:56:53;;;;;;;0.75;0.30;;;;;;;6.14;89.67;98880.63;2029508;79;21209;-78
2021/11/21 13:59:58;;;;;;;0.30;0.30;;;;;;;6.12;89.77;98885.78;2030127;80;20299;-79
2021/11/21 14:03:05;;;;;;;0.30;0.30;;;;;;;6.13;90.01;98882.34;2028286;77;21601;-78
2021/11/21 14:06:16;;;;;;;0.46;0.30;;;;;;;6.14;90.21;98888.38;2029930;79;20314;-78
2021/11/21 14:09:19;;;;;;;0.38;0.30;;;;;;;6.13;90.21;98889.22;2029412;80;20314;-78
2021/11/21 14:12:23;;;;;;;0.30;0.30;;;;;;;6.13;90.20;98887.50;2030554;80;20383;-78
2021/11/21 14:15:27;;;;;;;2.22;0.30;;;;;;;6.06;89.93;98890.88;2027706;79;20375;-78
2021/11/21 14:18:45;;;;;;;0.93;0.38;;;;;;;6.04;90.45;98892.59;2029372;80;20403;-78
2021/11/21 14:22:08;;;;;;;0.77;0.50;;;;;;;6.05;90.79;98894.31;2029590;80;20415;-78
2021/11/21 14:25:11;;;;;;;1.58;0.35;;;;;;;6.09;91.13;98890.91;2029729;79;20319;-77
2021/11/21 14:28:20;;;;;;;0.40;0.40;;;;;;;6.11;91.07;98891.81;2030105;80;20323;-78
2021/11/21 14:31:24;;;;;;;0.31;0.31;;;;;;;6.10;91.12;98892.63;2024860;80;20306;-78
2021/11/21 14:34:31;;;;;;;0.60;0.40;;;;;;;6.13;91.23;98892.66;2025696;79;20680;-78
2021/11/21 14:37:35;;;;;;;0.85;0.34;;;;;;;6.12;91.27;98887.50;2030215;79;20307;-77
2021/11/21 14:40:37;;;;;;;0.40;0.40;;;;;;;6.12;91.22;98892.66;2030247;79;20739;-78